Weather at Viejo Airport

Public forecast

Using degrees Celsius for public forecast. Weather courtesy of forecast.io.

Closest aviation weather report (METAR) to Viejo Airport

Closest report is Abel Santamaria Airport, 24.2 nm (44.8 km) WNW. Retrieved 2021/06/13 08:50 UTC (1 hour ago):

MUSC 130850Z VRB01KT 8000 NSC 24/23 Q1015

Closest aviation forecast (TAF) to Viejo Airport

Forecast is more than 12 hours old.

Closest forecast is Abel Santamaria Airport, 24.2 nm (44.8 km) WNW. Retrieved 2021/01/30 18:00 UTC (4 months ago):

TAF MUSC 301700Z 3018/3118 10015KT 9000 SCT030 BECMG 3101/3103 VRB03KT BECMG 3115/3117 13010KT